This is the latest recevied weather packets stored in our database for station/object OE3WYC-1. If no packets are shown the sender has not sent any weather packets the latest 10 day(s).
| Time | Temp. | Humidity | Pressure | Rain* | Wind** | Luminosity | Snow |
|---|---|---|---|---|---|---|---|
| 1777306806 | 18.33° C | 33% | 1018.8 hPa | 0 mm | - | - | - |
| 1777299006 | 18.89° C | 35% | 1019.4 hPa | 0 mm | - | - | - |
| 1777291206 | 19.44° C | 37% | 1021.1 hPa | 0 mm | - | - | - |
| 1777290606 | 18.89° C | 37% | 1021.1 hPa | 0 mm | - | - | - |
| 1777287907 | 18.33° C | 38% | 1021.7 hPa | 0 mm | - | - | - |
| 1777287605 | 18.33° C | 38% | 1021.6 hPa | 0 mm | - | - | - |
| 1777287306 | 17.78° C | 37% | 1021.7 hPa | 0 mm | - | - | - |
| 1777285805 | 17.78° C | 39% | 1022.1 hPa | 0 mm | - | - | - |
| 1777285206 | 17.78° C | 40% | 1022.3 hPa | 0 mm | - | - | - |
| 1777284006 | 17.22° C | 40% | 1022.4 hPa | 0 mm | - | - | - |
| 1777282206 | 16.67° C | 41% | 1022.7 hPa | 0 mm | - | - | - |
| 1777281605 | 16.67° C | 42% | 1022.8 hPa | 0 mm | - | - | - |
| 1777281306 | 16.11° C | 42% | 1022.8 hPa | 0 mm | - | - | - |
| 1777280405 | 15.56° C | 43% | 1023 hPa | 0 mm | - | - | - |
| 1777278606 | 15° C | 43% | 1023.2 hPa | 0 mm | - | - | - |
| 1777277106 | 13.89° C | 46% | 1023.1 hPa | 0 mm | - | - | - |
| 1777276807 | 13.89° C | 47% | 1023.1 hPa | 0 mm | - | - | - |
| 1777273806 | 12.22° C | 51% | 1023.1 hPa | 0 mm | - | - | - |
| 1777273507 | 11.67° C | 53% | 1023.3 hPa | 0 mm | - | - | - |
| 1777272305 | 11.11° C | 56% | 1023.3 hPa | 0 mm | - | - | - |
| 1777270205 | 9.44° C | 64% | 1023.3 hPa | 0 mm | - | - | - |
| 1777269606 | 8.33° C | 66% | 1023.3 hPa | 0 mm | - | - | - |
| 1777269305 | 8.33° C | 66% | 1023.3 hPa | 0 mm | - | - | - |
| 1777267805 | 6.67° C | 68% | 1023.2 hPa | 0 mm | - | - | - |
| 1777267507 | 6.67° C | 68% | 1023.4 hPa | 0 mm | - | - | - |
* Rain latest hour (hover to see other rain measurements)
** Current wind speed in m/s (hover to see current wind gust speed)